Time;durP1;ratioP1;P1;durP2;ratioP2;P2;SDS_P1;SDS_P2;PMS_P1;PMS_P2;Temp;Humidity;BMP_temperature;BMP_pressure;BME280_temperature;BME280_humidity;BME280_pressure;Samples;Min_cycle;Max_cycle;Signal;HPM_P1;HPM_P2
2021/11/20 00:01:57;;;;;;;5.43;2.83;;;11.30;99.90;;;;;;4441554;32;20186;-68
2021/11/20 00:04:24;;;;;;;5.73;2.73;;;11.30;99.90;;;;;;4456199;32;20138;-68
2021/11/20 00:06:54;;;;;;;6.27;3.17;;;11.30;99.90;;;;;;4440778;32;20211;-68
2021/11/20 00:09:24;;;;;;;5.40;2.60;;;11.30;99.90;;;;;;4441151;32;20146;-68
2021/11/20 00:11:55;;;;;;;6.37;3.03;;;11.20;99.90;;;;;;4440023;32;20205;-68
2021/11/20 00:14:25;;;;;;;6.67;2.57;;;11.20;99.90;;;;;;4440760;32;20170;-68
2021/11/20 00:16:54;;;;;;;7.17;2.87;;;11.30;99.90;;;;;;4440104;32;20173;-68
2021/11/20 00:19:23;;;;;;;5.83;2.67;;;11.30;99.90;;;;;;4428917;32;20512;-68
2021/11/20 00:21:56;;;;;;;7.67;2.73;;;11.20;99.90;;;;;;4440748;32;20447;-68
2021/11/20 00:24:47;;;;;;;8.10;2.37;;;11.20;99.90;;;;;;4441451;32;20182;-68
2021/11/20 00:27:21;;;;;;;6.70;2.57;;;11.30;99.90;;;;;;4440703;32;20417;-69
2021/11/20 00:30:12;;;;;;;6.80;2.60;;;11.20;99.90;;;;;;4439425;32;20486;-69
2021/11/20 00:32:42;;;;;;;8.07;3.17;;;11.20;99.90;;;;;;4439862;32;20201;-69
2021/11/20 00:35:13;;;;;;;5.93;2.63;;;11.20;99.90;;;;;;4440603;32;20177;-68
2021/11/20 00:37:41;;;;;;;7.73;2.70;;;11.20;99.90;;;;;;4439880;32;20420;-69
2021/11/20 00:40:22;;;;;;;7.60;2.20;;;11.20;99.90;;;;;;4439659;32;20452;-69
2021/11/20 00:42:49;;;;;;;7.93;2.27;;;11.20;99.90;;;;;;4440738;32;20434;-68
2021/11/20 00:45:16;;;;;;;6.10;2.00;;;11.20;99.90;;;;;;4455490;32;20487;-69
2021/11/20 00:47:44;;;;;;;5.43;2.10;;;11.30;99.90;;;;;;4427856;32;20189;-69
2021/11/20 00:50:14;;;;;;;6.53;2.43;;;11.30;99.90;;;;;;4428050;32;20378;-68
2021/11/20 00:52:42;;;;;;;5.40;2.27;;;11.30;99.90;;;;;;4440711;32;20174;-68
2021/11/20 00:55:13;;;;;;;7.60;4.03;;;11.30;99.90;;;;;;4453751;32;20545;-68
2021/11/20 00:57:42;;;;;;;6.40;2.77;;;11.30;99.90;;;;;;4439660;32;20519;-68
2021/11/20 01:00:12;;;;;;;3.30;2.20;;;11.30;99.90;;;;;;4439984;32;20185;-69
2021/11/20 01:02:40;;;;;;;6.27;1.97;;;11.30;99.90;;;;;;4453919;32;20139;-68
2021/11/20 01:05:10;;;;;;;4.30;2.27;;;11.30;99.90;;;;;;4439558;32;20229;-68
2021/11/20 01:07:37;;;;;;;6.27;2.00;;;11.40;99.90;;;;;;4440872;32;20520;-68
2021/11/20 01:10:08;;;;;;;4.87;2.20;;;11.40;99.90;;;;;;4439542;32;20182;-68
2021/11/20 01:12:36;;;;;;;4.03;2.03;;;11.40;99.90;;;;;;4453974;32;20146;-69
2021/11/20 01:15:09;;;;;;;5.80;2.00;;;11.40;99.90;;;;;;4439985;32;20229;-68
2021/11/20 01:17:37;;;;;;;4.30;2.00;;;11.40;99.90;;;;;;4440945;32;20212;-68
2021/11/20 01:20:06;;;;;;;5.77;1.87;;;11.40;99.90;;;;;;4440395;32;20536;-68
2021/11/20 01:22:34;;;;;;;3.10;1.93;;;11.40;99.90;;;;;;4441285;32;20198;-69
2021/11/20 01:25:02;;;;;;;4.40;2.00;;;11.40;99.90;;;;;;4439834;32;20459;-68
2021/11/20 01:27:30;;;;;;;5.13;2.07;;;11.40;99.90;;;;;;4454623;32;20191;-68
2021/11/20 01:29:57;;;;;;;4.30;2.10;;;11.40;99.90;;;;;;4439637;32;20220;-68
2021/11/20 01:32:24;;;;;;;3.60;1.90;;;11.40;99.90;;;;;;4427143;32;20173;-68
2021/11/20 01:34:51;;;;;;;4.80;2.07;;;11.40;99.90;;;;;;4439768;32;20434;-68
2021/11/20 01:37:19;;;;;;;5.10;1.93;;;11.40;99.90;;;;;;4440114;32;20453;-69
2021/11/20 01:39:48;;;;;;;3.40;1.70;;;11.40;99.90;;;;;;4439492;32;20228;-68
2021/11/20 01:42:19;;;;;;;7.93;2.20;;;11.50;99.90;;;;;;4443647;32;20412;-69
2021/11/20 01:45:00;;;;;;;7.80;2.17;;;11.50;99.90;;;;;;4430776;32;20241;-68
2021/11/20 01:47:38;;;;;;;6.50;2.00;;;11.50;99.90;;;;;;4442348;32;20162;-69
2021/11/20 01:50:12;;;;;;;3.80;1.70;;;11.50;99.90;;;;;;4442438;32;20180;-68
2021/11/20 01:52:52;;;;;;;4.23;1.73;;;11.50;99.90;;;;;;4457969;32;20153;-69
2021/11/20 01:55:32;;;;;;;4.50;2.07;;;11.50;99.90;;;;;;4443550;32;20567;-69
2021/11/20 01:58:15;;;;;;;5.93;2.03;;;11.50;99.90;;;;;;4458502;32;20149;-68
2021/11/20 02:00:56;;;;;;;7.23;1.90;;;11.50;99.90;;;;;;4444049;32;20174;-68
2021/11/20 02:03:37;;;;;;;5.80;1.80;;;11.50;99.90;;;;;;4442577;32;20500;-69
2021/11/20 02:06:11;;;;;;;3.70;1.70;;;11.40;99.90;;;;;;4457455;32;20138;-68
2021/11/20 02:08:50;;;;;;;6.03;1.80;;;11.50;99.90;;;;;;4456514;32;20169;-69
2021/11/20 02:11:20;;;;;;;8.03;2.10;;;11.50;99.90;;;;;;4443327;32;20558;-68
2021/11/20 02:13:47;;;;;;;6.97;2.13;;;11.50;99.90;;;;;;4442621;32;20169;-69
2021/11/20 02:16:22;;;;;;;3.83;1.70;;;11.50;99.90;;;;;;4456214;32;20138;-68
2021/11/20 02:18:53;;;;;;;5.37;2.00;;;11.50;99.90;;;;;;4441527;32;20219;-68
2021/11/20 02:21:41;;;;;;;6.03;1.97;;;11.50;99.90;;;;;;4441713;32;20182;-68
2021/11/20 02:24:08;;;;;;;4.10;1.97;;;11.60;99.90;;;;;;4441461;32;20241;-69
2021/11/20 02:26:35;;;;;;;6.60;2.00;;;11.50;99.90;;;;;;4441669;32;20173;-68
2021/11/20 02:29:07;;;;;;;4.97;1.63;;;11.50;99.90;;;;;;4456902;32;20188;-69
2021/11/20 02:31:41;;;;;;;6.50;2.27;;;11.50;99.90;;;;;;4441984;32;20181;-69
2021/11/20 02:34:08;;;;;;;9.03;2.10;;;11.50;99.90;;;;;;4442556;32;20170;-68
2021/11/20 02:36:36;;;;;;;5.63;2.00;;;11.60;99.90;;;;;;4442153;32;20599;-68
2021/11/20 02:39:08;;;;;;;4.97;1.70;;;11.50;99.90;;;;;;4455734;32;20154;-68
2021/11/20 02:41:36;;;;;;;6.00;1.97;;;11.60;99.90;;;;;;4442027;32;20204;-70
2021/11/20 02:44:06;;;;;;;6.10;2.00;;;11.50;99.90;;;;;;4457005;32;20157;-68
2021/11/20 02:46:37;;;;;;;4.80;2.00;;;11.50;99.90;;;;;;4441713;32;20166;-68
2021/11/20 02:49:06;;;;;;;6.27;2.57;;;11.50;99.90;;;;;;4441289;32;20170;-68
2021/11/20 02:51:36;;;;;;;5.43;2.17;;;11.50;99.90;;;;;;4442041;32;20223;-68
2021/11/20 02:54:25;;;;;;;3.37;1.60;;;11.50;99.90;;;;;;4456491;32;20199;-68
2021/11/20 02:57:21;;;;;;;7.83;1.87;;;11.50;99.90;;;;;;4441819;32;20185;-68
2021/11/20 02:59:48;;;;;;;4.53;1.73;;;11.60;99.90;;;;;;4454567;32;20170;-68
2021/11/20 03:02:16;;;;;;;3.47;1.60;;;11.60;99.90;;;;;;4442200;32;20169;-68
2021/11/20 03:04:44;;;;;;;5.97;1.70;;;11.60;99.90;;;;;;4442125;32;20365;-68
2021/11/20 03:07:11;;;;;;;4.97;2.00;;;11.50;99.90;;;;;;4455570;32;20138;-68
2021/11/20 03:09:40;;;;;;;6.27;1.70;;;11.50;99.90;;;;;;4456973;32;20142;-68
2021/11/20 03:12:12;;;;;;;6.30;1.90;;;11.50;99.90;;;;;;4442108;32;20192;-68
2021/11/20 03:14:40;;;;;;;6.20;1.80;;;11.40;99.90;;;;;;4442821;32;20192;-68
2021/11/20 03:17:10;;;;;;;9.17;1.93;;;11.50;99.90;;;;;;4442863;32;20242;-68
2021/11/20 03:19:44;;;;;;;4.80;1.60;;;11.50;99.90;;;;;;4455325;32;20177;-68
2021/11/20 03:22:20;;;;;;;4.27;1.90;;;11.40;99.90;;;;;;4456523;32;20165;-68
2021/11/20 03:24:49;;;;;;;6.40;1.80;;;11.40;99.90;;;;;;4429226;32;20655;-68
2021/11/20 03:27:16;;;;;;;6.13;1.70;;;11.40;99.90;;;;;;4441590;32;20270;-68
2021/11/20 03:29:43;;;;;;;5.80;1.77;;;11.40;99.90;;;;;;4441243;32;20200;-68
2021/11/20 03:32:12;;;;;;;4.43;1.60;;;11.40;99.90;;;;;;4441586;32;20164;-68
2021/11/20 03:34:40;;;;;;;8.20;2.10;;;11.50;99.90;;;;;;4441159;32;20162;-68
2021/11/20 03:37:09;;;;;;;6.53;1.90;;;11.50;99.90;;;;;;4442514;32;20249;-68
2021/11/20 03:39:37;;;;;;;8.90;1.80;;;11.40;99.90;;;;;;4440786;32;20238;-68
2021/11/20 03:42:05;;;;;;;5.10;1.80;;;11.40;99.90;;;;;;4440961;32;20201;-68
2021/11/20 03:44:33;;;;;;;6.37;2.10;;;11.40;99.90;;;;;;4428558;32;20214;-68
2021/11/20 03:47:00;;;;;;;4.93;1.63;;;11.30;99.90;;;;;;4441522;32;20173;-68
2021/11/20 03:49:27;;;;;;;5.40;2.00;;;11.40;99.90;;;;;;4440731;32;20205;-69
2021/11/20 03:51:54;;;;;;;6.90;1.70;;;11.40;99.90;;;;;;4441827;32;20170;-68
2021/11/20 03:54:22;;;;;;;6.00;2.07;;;11.30;99.90;;;;;;4440526;32;20208;-68
2021/11/20 03:56:49;;;;;;;9.20;2.20;;;11.30;99.90;;;;;;4442753;32;20182;-68
2021/11/20 03:59:18;;;;;;;4.63;1.60;;;11.30;99.90;;;;;;4441312;32;20509;-68
2021/11/20 04:01:48;;;;;;;5.50;1.63;;;11.20;99.90;;;;;;4455924;32;20208;-68
2021/11/20 04:04:16;;;;;;;5.47;1.70;;;11.20;99.90;;;;;;4453824;32;20210;-68
2021/11/20 04:06:44;;;;;;;7.13;1.90;;;11.20;99.90;;;;;;4440293;32;20227;-68
2021/11/20 04:09:13;;;;;;;6.67;1.60;;;11.10;99.90;;;;;;4440522;32;20234;-69
2021/11/20 04:11:44;;;;;;;5.60;1.80;;;11.10;99.90;;;;;;4455196;32;20154;-68
2021/11/20 04:14:13;;;;;;;7.13;1.90;;;11.00;99.90;;;;;;4440501;32;20174;-68
2021/11/20 04:16:40;;;;;;;7.37;1.80;;;11.00;99.90;;;;;;4440157;32;20512;-68
2021/11/20 04:19:08;;;;;;;5.63;1.90;;;11.00;99.90;;;;;;4441631;32;20201;-68
2021/11/20 04:21:36;;;;;;;7.10;1.70;;;11.00;99.90;;;;;;4440690;32;20206;-68
2021/11/20 04:24:05;;;;;;;5.97;1.77;;;10.90;99.90;;;;;;4440899;32;20528;-69
2021/11/20 04:26:32;;;;;;;6.93;1.67;;;10.90;99.90;;;;;;4440737;32;20189;-68
2021/11/20 04:28:59;;;;;;;4.20;1.73;;;10.90;99.90;;;;;;4442061;32;20484;-68
2021/11/20 04:31:27;;;;;;;7.10;2.00;;;10.90;99.90;;;;;;4441108;32;20197;-69
2021/11/20 04:33:55;;;;;;;5.07;1.93;;;10.80;99.90;;;;;;4427990;32;20182;-68
2021/11/20 04:36:24;;;;;;;7.23;1.80;;;10.80;99.90;;;;;;4439844;32;20197;-68
2021/11/20 04:38:52;;;;;;;6.97;1.70;;;10.80;99.90;;;;;;4440079;32;20169;-68
2021/11/20 04:41:20;;;;;;;6.90;1.90;;;10.80;99.90;;;;;;4454253;32;20138;-68
2021/11/20 04:43:51;;;;;;;5.20;1.90;;;10.80;99.90;;;;;;4440618;32;20281;-68
2021/11/20 04:46:21;;;;;;;6.43;1.70;;;10.70;99.90;;;;;;4455107;32;20157;-68
2021/11/20 04:48:48;;;;;;;7.67;2.47;;;10.60;99.90;;;;;;4427037;32;20170;-68
2021/11/20 04:51:16;;;;;;;6.53;1.70;;;10.60;99.90;;;;;;4441317;32;20170;-68
2021/11/20 04:53:45;;;;;;;10.63;1.93;;;10.60;99.90;;;;;;4441357;32;20178;-68
2021/11/20 04:56:15;;;;;;;8.60;2.00;;;10.60;99.90;;;;;;4441049;32;20408;-68
2021/11/20 04:58:44;;;;;;;8.07;1.70;;;10.60;99.90;;;;;;4441397;32;20194;-68
2021/11/20 05:01:11;;;;;;;10.10;1.50;;;10.50;99.90;;;;;;4454520;32;20168;-68
2021/11/20 05:03:40;;;;;;;6.57;1.43;;;10.50;99.90;;;;;;4441160;32;20511;-68
2021/11/20 05:06:07;;;;;;;6.10;1.60;;;10.50;99.90;;;;;;4440529;32;20252;-68
2021/11/20 05:08:34;;;;;;;8.70;1.77;;;10.50;99.90;;;;;;4439320;32;20228;-68
2021/11/20 05:11:06;;;;;;;6.10;1.70;;;10.50;99.90;;;;;;4453885;32;20169;-68
2021/11/20 05:13:34;;;;;;;8.67;1.57;;;10.50;99.90;;;;;;4439777;32;20160;-68
2021/11/20 05:16:01;;;;;;;7.27;1.80;;;10.50;99.90;;;;;;4439297;32;20222;-68
2021/11/20 05:18:29;;;;;;;9.57;1.90;;;10.40;99.90;;;;;;4441344;32;20582;-68
2021/11/20 05:20:59;;;;;;;8.47;1.90;;;10.40;99.90;;;;;;4440848;32;20182;-68
2021/11/20 05:23:28;;;;;;;3.57;1.27;;;10.40;99.90;;;;;;4454095;32;20145;-68
2021/11/20 05:25:55;;;;;;;5.23;1.40;;;10.50;99.90;;;;;;4439246;32;20660;-68
2021/11/20 05:28:23;;;;;;;6.30;1.60;;;10.50;99.90;;;;;;4455270;32;20468;-68
2021/11/20 05:30:51;;;;;;;6.63;1.73;;;10.50;99.90;;;;;;4441128;32;20193;-68
2021/11/20 05:33:26;;;;;;;8.70;1.70;;;10.40;99.90;;;;;;4440820;32;20177;-68
2021/11/20 05:35:54;;;;;;;5.47;1.77;;;10.30;99.90;;;;;;4439593;32;20203;-68
2021/11/20 05:38:21;;;;;;;8.90;1.60;;;10.40;99.90;;;;;;4440084;32;20188;-68
2021/11/20 05:40:48;;;;;;;7.50;2.10;;;10.40;99.90;;;;;;4440195;32;20171;-68
2021/11/20 05:43:19;;;;;;;9.07;1.90;;;10.40;99.90;;;;;;4454637;32;20180;-68
2021/11/20 05:45:52;;;;;;;9.67;1.70;;;10.30;99.90;;;;;;4439553;32;20162;-68
2021/11/20 05:48:21;;;;;;;11.37;1.80;;;10.30;99.90;;;;;;4440674;32;20166;-68
2021/11/20 05:50:50;;;;;;;8.30;1.70;;;10.30;99.90;;;;;;4439049;32;20178;-68
2021/11/20 05:53:22;;;;;;;9.83;1.93;;;10.20;99.90;;;;;;4439127;32;20405;-68
2021/11/20 05:55:52;;;;;;;10.97;1.73;;;10.20;99.90;;;;;;4442385;32;20226;-68
2021/11/20 05:58:20;;;;;;;9.03;2.40;;;10.20;99.90;;;;;;4439841;32;20174;-67
2021/11/20 06:00:50;;;;;;;6.07;1.50;;;10.20;99.90;;;;;;4440091;32;20186;-68
2021/11/20 06:03:20;;;;;;;6.30;1.50;;;10.10;99.90;;;;;;4454069;32;20444;-68
2021/11/20 06:05:48;;;;;;;6.57;1.40;;;10.10;99.90;;;;;;4440342;32;20160;-68
2021/11/20 06:08:15;;;;;;;7.83;1.80;;;10.10;99.90;;;;;;4439856;32;20389;-68
2021/11/20 06:10:44;;;;;;;8.33;1.77;;;10.10;99.90;;;;;;4453263;32;20146;-68
2021/11/20 06:13:12;;;;;;;7.37;1.60;;;10.10;99.90;;;;;;4455007;32;20237;-68
2021/11/20 06:15:40;;;;;;;11.23;1.90;;;10.10;99.90;;;;;;4453499;32;20138;-68
2021/11/20 06:18:10;;;;;;;7.00;1.67;;;10.10;99.90;;;;;;4453469;32;20169;-68
2021/11/20 06:20:39;;;;;;;6.03;1.90;;;10.00;99.90;;;;;;4439242;32;20297;-68
2021/11/20 06:23:25;;;;;;;9.17;1.80;;;10.00;99.90;;;;;;4440201;32;20192;-68
2021/11/20 06:25:53;;;;;;;8.13;2.00;;;9.90;99.90;;;;;;4440789;32;20189;-68
2021/11/20 06:28:20;;;;;;;11.30;2.37;;;9.90;99.90;;;;;;4454704;32;20151;-68
2021/11/20 06:30:47;;;;;;;9.40;1.87;;;9.90;99.90;;;;;;4455904;32;20223;-68
2021/11/20 06:33:15;;;;;;;9.30;1.83;;;10.00;99.90;;;;;;4442037;32;20174;-68
2021/11/20 06:35:48;;;;;;;10.03;2.27;;;10.00;99.90;;;;;;4442538;32;20226;-68
2021/11/20 06:38:15;;;;;;;10.23;2.10;;;10.00;99.90;;;;;;4457913;32;20137;-68
2021/11/20 06:40:45;;;;;;;8.80;1.90;;;9.90;99.90;;;;;;4441562;32;20178;-68
2021/11/20 06:43:14;;;;;;;8.43;1.73;;;10.00;99.90;;;;;;4442566;32;20531;-68
2021/11/20 06:45:44;;;;;;;9.33;1.77;;;9.90;99.90;;;;;;4442482;32;20204;-68
2021/11/20 06:48:12;;;;;;;8.30;1.97;;;10.00;99.90;;;;;;4456235;32;20439;-68
2021/11/20 06:50:42;;;;;;;8.50;1.83;;;9.90;99.90;;;;;;4443412;32;20166;-68
2021/11/20 06:53:11;;;;;;;7.97;1.80;;;10.00;99.90;;;;;;4441504;32;20200;-69
2021/11/20 06:55:39;;;;;;;10.30;2.10;;;10.00;99.90;;;;;;4441227;32;20173;-68
2021/11/20 07:00:58;;;;;;;8.37;1.90;;;10.00;99.90;;;;;;4393841;32;20167;-68
2021/11/20 07:03:32;;;;;;;10.97;2.10;;;10.00;99.90;;;;;;4392923;32;20461;-68
2021/11/20 07:06:22;;;;;;;6.97;2.00;;;10.00;99.90;;;;;;4380215;32;20557;-68
2021/11/20 07:08:52;;;;;;;11.27;2.10;;;10.00;99.90;;;;;;4379370;32;20681;-68
2021/11/20 07:11:20;;;;;;;8.53;1.70;;;10.00;99.90;;;;;;4380437;32;20172;-68
2021/11/20 07:13:51;;;;;;;8.90;2.00;;;10.10;99.90;;;;;;4379900;32;20237;-70
2021/11/20 07:16:20;;;;;;;10.03;2.33;;;10.10;99.90;;;;;;4379587;32;20462;-69
2021/11/20 07:18:47;;;;;;;9.03;1.80;;;10.10;99.90;;;;;;4380473;32;20201;-68
2021/11/20 07:21:15;;;;;;;8.90;2.10;;;10.20;99.90;;;;;;4379583;32;20655;-68
2021/11/20 07:23:42;;;;;;;4.83;1.73;;;10.40;99.90;;;;;;4380034;32;20517;-68
2021/11/20 07:26:10;;;;;;;7.73;2.10;;;10.50;99.90;;;;;;4378932;32;20500;-68
2021/11/20 07:28:37;;;;;;;9.43;1.60;;;10.70;99.90;;;;;;4366995;32;20167;-68
2021/11/20 07:31:24;;;;;;;10.40;1.73;;;11.00;99.90;;;;;;4379702;32;20171;-68
2021/11/20 07:33:52;;;;;;;10.57;2.17;;;11.10;99.90;;;;;;4379269;32;20232;-68
2021/11/20 07:36:19;;;;;;;8.57;2.20;;;11.20;99.90;;;;;;4379710;32;20187;-69
2021/11/20 07:38:51;;;;;;;9.10;2.07;;;11.40;99.90;;;;;;4423435;32;20197;-68
2021/11/20 07:41:20;;;;;;;6.47;2.20;;;11.40;99.90;;;;;;4454786;32;20185;-68
2021/11/20 07:43:47;;;;;;;7.83;1.90;;;11.30;99.90;;;;;;4455095;32;20164;-68
2021/11/20 07:46:14;;;;;;;10.23;2.37;;;11.30;99.90;;;;;;4453746;32;20589;-69
2021/11/20 07:48:42;;;;;;;8.57;2.20;;;11.40;99.90;;;;;;4453079;32;20185;-69
2021/11/20 07:51:11;;;;;;;10.50;2.33;;;11.40;99.90;;;;;;4454309;32;20561;-68
2021/11/20 07:53:39;;;;;;;12.37;2.50;;;11.50;99.90;;;;;;4453182;32;20228;-69
2021/11/20 07:56:08;;;;;;;11.33;2.30;;;11.50;99.90;;;;;;4456035;32;20193;-69
2021/11/20 07:58:36;;;;;;;10.17;2.33;;;11.60;99.90;;;;;;4456116;32;20563;-69
2021/11/20 08:01:04;;;;;;;9.93;2.60;;;11.50;99.90;;;;;;4453114;32;20508;-68
2021/11/20 08:03:32;;;;;;;10.33;2.20;;;11.50;99.90;;;;;;4456399;32;20157;-68
2021/11/20 08:05:59;;;;;;;9.43;2.50;;;11.50;99.90;;;;;;4439344;32;20178;-68
2021/11/20 08:08:26;;;;;;;8.83;2.27;;;11.60;99.90;;;;;;4425431;32;20193;-68
2021/11/20 08:10:53;;;;;;;7.90;2.00;;;11.80;99.90;;;;;;4438819;32;20194;-68
2021/11/20 08:13:21;;;;;;;12.87;2.63;;;11.90;99.90;;;;;;4438249;32;20193;-68
2021/11/20 08:15:48;;;;;;;8.97;2.30;;;11.80;99.90;;;;;;4438138;32;20262;-67
2021/11/20 08:18:16;;;;;;;10.70;3.20;;;11.80;99.90;;;;;;4439020;32;20168;-67
2021/11/20 08:20:45;;;;;;;11.20;2.90;;;11.80;99.90;;;;;;4437034;32;20520;-68
2021/11/20 08:23:13;;;;;;;11.80;2.90;;;11.90;99.90;;;;;;4437967;32;20171;-68
2021/11/20 08:25:45;;;;;;;10.77;2.43;;;12.10;99.90;;;;;;4438090;32;20166;-68
2021/11/20 08:28:16;;;;;;;10.07;2.40;;;12.00;99.90;;;;;;4439054;32;20139;-68
2021/11/20 08:30:45;;;;;;;12.33;2.40;;;11.90;99.90;;;;;;4437934;32;20241;-68
2021/11/20 08:33:12;;;;;;;9.17;2.70;;;11.80;99.90;;;;;;4438691;32;20551;-68
2021/11/20 08:35:40;;;;;;;11.47;2.37;;;11.70;99.90;;;;;;4437514;32;20200;-68
2021/11/20 08:38:10;;;;;;;12.37;2.70;;;11.50;99.90;;;;;;4437246;32;20546;-67
2021/11/20 08:40:41;;;;;;;10.73;2.57;;;11.40;99.90;;;;;;4439119;32;20187;-68
2021/11/20 08:43:08;;;;;;;9.97;2.80;;;11.30;99.90;;;;;;4437597;32;20221;-68
2021/11/20 08:45:43;;;;;;;9.37;2.30;;;11.20;99.90;;;;;;4438620;32;20393;-67
2021/11/20 08:48:15;;;;;;;8.60;2.40;;;11.20;99.90;;;;;;4438732;32;20404;-67
2021/11/20 08:50:51;;;;;;;7.97;2.13;;;11.20;99.90;;;;;;4437886;32;20194;-68
2021/11/20 08:53:19;;;;;;;9.17;2.17;;;11.20;99.90;;;;;;4437410;32;20606;-68
2021/11/20 08:55:48;;;;;;;7.43;2.60;;;11.20;99.90;;;;;;4437206;32;20206;-67
2021/11/20 08:58:15;;;;;;;9.17;2.83;;;11.20;99.90;;;;;;4436942;32;20571;-67
2021/11/20 09:00:55;;;;;;;9.27;2.37;;;11.20;99.90;;;;;;4436839;32;20182;-67
2021/11/20 09:03:42;;;;;;;10.20;2.27;;;11.20;99.90;;;;;;4439374;32;20365;-67
2021/11/20 09:06:12;;;;;;;11.67;2.53;;;11.20;99.90;;;;;;4435979;32;20146;-67
2021/11/20 09:09:09;;;;;;;6.80;2.77;;;11.10;99.90;;;;;;4436797;32;20174;-68
2021/11/20 09:11:51;;;;;;;11.43;2.33;;;11.10;99.90;;;;;;4436822;32;20178;-67
2021/11/20 09:14:18;;;;;;;13.27;2.60;;;11.00;99.90;;;;;;4437064;32;20205;-67
2021/11/20 09:16:45;;;;;;;9.87;2.73;;;11.10;99.90;;;;;;4438622;32;20178;-68
2021/11/20 09:19:13;;;;;;;10.63;2.40;;;11.20;99.90;;;;;;4437598;32;20459;-67
2021/11/20 09:21:55;;;;;;;8.40;2.50;;;11.20;99.90;;;;;;4438628;32;20546;-67
2021/11/20 09:24:23;;;;;;;7.57;2.30;;;11.20;99.90;;;;;;4438064;32;20415;-67
2021/11/20 09:26:50;;;;;;;5.90;2.20;;;11.30;99.90;;;;;;4437723;32;20194;-67
2021/11/20 09:29:18;;;;;;;10.73;2.47;;;11.10;99.90;;;;;;4424740;32;20166;-67
2021/11/20 09:31:46;;;;;;;8.20;2.70;;;11.20;99.90;;;;;;4438650;32;20242;-67
2021/11/20 09:34:16;;;;;;;9.03;2.60;;;11.30;99.90;;;;;;4438137;32;20169;-67
2021/11/20 09:36:45;;;;;;;10.77;2.83;;;11.20;99.90;;;;;;4438391;32;20162;-67
2021/11/20 09:39:15;;;;;;;9.03;2.50;;;11.10;99.90;;;;;;4437922;32;20503;-68
2021/11/20 09:41:57;;;;;;;9.43;3.00;;;11.10;99.90;;;;;;4437020;32;20527;-68
2021/11/20 09:44:25;;;;;;;10.00;2.40;;;11.20;99.90;;;;;;4436997;32;20425;-67
2021/11/20 09:46:59;;;;;;;10.93;2.50;;;11.30;99.90;;;;;;4438510;32;20468;-68
2021/11/20 09:49:36;;;;;;;9.53;2.60;;;11.30;99.90;;;;;;4436568;32;20520;-68
2021/11/20 09:52:05;;;;;;;10.23;2.57;;;11.50;99.90;;;;;;4436852;32;20167;-68
2021/11/20 09:54:37;;;;;;;11.47;2.60;;;11.50;99.90;;;;;;4437484;32;20558;-68
2021/11/20 09:57:10;;;;;;;10.60;2.10;;;11.40;99.90;;;;;;4424120;32;20197;-68
2021/11/20 09:59:46;;;;;;;9.67;2.20;;;11.30;99.90;;;;;;4433495;32;20194;-67
2021/11/20 10:02:37;;;;;;;8.17;2.53;;;11.30;99.90;;;;;;4439100;32;20516;-67
2021/11/20 10:05:07;;;;;;;8.90;2.40;;;11.20;99.90;;;;;;4439498;32;20572;-66
2021/11/20 10:07:49;;;;;;;6.20;2.40;;;11.20;99.90;;;;;;4439372;32;20196;-67
2021/11/20 10:10:16;;;;;;;13.83;2.77;;;11.30;99.90;;;;;;4440610;32;20185;-67
2021/11/20 10:12:49;;;;;;;6.83;2.40;;;11.40;99.90;;;;;;4440532;32;20170;-67
2021/11/20 10:15:29;;;;;;;8.13;2.43;;;11.40;99.90;;;;;;4440042;32;20138;-67
2021/11/20 10:18:36;;;;;;;10.60;2.47;;;11.50;99.90;;;;;;4440328;32;20178;-67
2021/11/20 10:21:34;;;;;;;9.40;2.40;;;11.70;99.90;;;;;;4430748;32;20216;-67
2021/11/20 10:24:41;;;;;;;10.63;2.60;;;11.80;99.90;;;;;;4375392;32;20247;-67
2021/11/20 10:27:26;;;;;;;9.23;2.20;;;11.70;99.90;;;;;;4378171;32;20472;-67
2021/11/20 10:30:11;;;;;;;11.87;2.87;;;11.70;99.90;;;;;;4366715;32;20240;-67
2021/11/20 10:32:47;;;;;;;7.90;2.20;;;11.60;99.90;;;;;;4378320;32;20167;-67
2021/11/20 10:35:19;;;;;;;6.70;2.00;;;11.70;99.90;;;;;;4366140;32;20254;-67
2021/11/20 10:37:52;;;;;;;9.10;2.37;;;11.60;99.90;;;;;;4364665;32;20485;-67
2021/11/20 10:40:30;;;;;;;10.40;2.50;;;11.50;99.90;;;;;;4377125;32;20278;-67
2021/11/20 10:43:13;;;;;;;11.10;2.50;;;11.40;99.90;;;;;;4365610;32;20210;-67
2021/11/20 10:46:22;;;;;;;8.43;2.47;;;11.30;99.90;;;;;;4372662;32;20234;-66
2021/11/20 10:49:32;;;;;;;10.30;2.70;;;11.30;99.90;;;;;;4364713;32;20275;-67
2021/11/20 10:52:14;;;;;;;10.40;2.40;;;11.20;99.90;;;;;;4368363;32;20271;-67
2021/11/20 10:54:59;;;;;;;10.93;2.63;;;11.20;99.90;;;;;;4366263;32;20226;-67
2021/11/20 10:57:35;;;;;;;8.33;2.50;;;11.10;99.90;;;;;;4364426;32;20172;-67
2021/11/20 11:00:23;;;;;;;10.93;2.87;;;11.10;99.90;;;;;;4370934;32;20187;-67
2021/11/20 11:02:59;;;;;;;7.87;2.37;;;11.20;99.90;;;;;;4438847;32;20219;-68
2021/11/20 11:05:26;;;;;;;9.70;2.50;;;11.40;99.90;;;;;;4438823;32;20204;-67
2021/11/20 11:08:09;;;;;;;8.33;2.40;;;11.60;99.90;;;;;;4441023;32;20199;-67
2021/11/20 11:10:43;;;;;;;8.07;2.53;;;11.70;99.90;;;;;;4438929;32;20215;-67
2021/11/20 11:13:25;;;;;;;9.47;2.40;;;11.70;99.90;;;;;;4437692;32;20178;-67
2021/11/20 11:16:15;;;;;;;12.17;2.77;;;11.80;99.90;;;;;;4439161;32;20178;-68
2021/11/20 11:18:55;;;;;;;7.87;2.20;;;11.90;99.90;;;;;;4440122;32;20174;-67
2021/11/20 11:21:37;;;;;;;8.27;2.10;;;12.00;99.90;;;;;;4425498;32;20208;-67
2021/11/20 11:24:19;;;;;;;7.00;1.90;;;12.00;99.90;;;;;;4438384;32;20233;-71
2021/11/20 11:26:55;;;;;;;7.10;2.20;;;12.20;99.90;;;;;;4430778;32;20245;-68
2021/11/20 11:29:28;;;;;;;7.70;2.10;;;12.20;99.90;;;;;;4437988;32;20233;-68
2021/11/20 11:31:56;;;;;;;7.37;1.53;;;12.00;99.90;;;;;;4438579;32;20186;-72
2021/11/20 11:34:23;;;;;;;7.33;1.70;;;11.90;99.90;;;;;;4435636;32;20246;-68
2021/11/20 11:37:19;;;;;;;6.30;1.70;;;11.80;99.90;;;;;;4439909;32;20196;-68
2021/11/20 11:39:52;;;;;;;6.33;1.83;;;11.70;99.90;;;;;;4439907;32;20515;-68
2021/11/20 11:42:19;;;;;;;9.53;2.20;;;11.70;99.90;;;;;;4442122;32;20428;-68
2021/11/20 11:44:49;;;;;;;7.67;1.97;;;11.60;99.90;;;;;;4442537;32;20146;-68
2021/11/20 11:47:50;;;;;;;10.63;2.40;;;11.60;99.90;;;;;;4440536;32;20218;-68
2021/11/20 11:50:46;;;;;;;6.43;1.80;;;12.30;99.90;;;;;;4442363;32;20411;-68
2021/11/20 11:53:50;;;;;;;8.87;2.40;;;12.60;99.90;;;;;;4455826;32;20134;-68
2021/11/20 11:56:31;;;;;;;8.60;2.20;;;12.70;99.90;;;;;;4440259;32;20182;-68
2021/11/20 11:59:07;;;;;;;6.10;2.00;;;12.70;99.90;;;;;;4440365;32;20174;-68
2021/11/20 12:01:46;;;;;;;5.73;1.83;;;12.60;99.90;;;;;;4442326;32;20170;-68
2021/11/20 12:04:44;;;;;;;6.43;2.00;;;12.70;99.90;;;;;;4441576;32;20192;-69
2021/11/20 12:07:30;;;;;;;5.90;1.90;;;12.70;99.90;;;;;;4439332;32;20305;-71
2021/11/20 12:22:16;;;;;;;7.07;2.00;;;13.00;99.90;;;;;;4483188;31;20540;-67
2021/11/20 12:24:52;;;;;;;7.33;2.20;;;12.60;99.90;;;;;;4468391;32;20222;-67
2021/11/20 12:27:50;;;;;;;8.77;2.67;;;12.40;99.90;;;;;;4465991;32;20611;-67
2021/11/20 12:30:26;;;;;;;6.87;1.90;;;12.40;99.90;;;;;;4465938;32;20182;-67
2021/11/20 12:32:54;;;;;;;6.00;2.00;;;12.50;99.90;;;;;;4465435;32;20534;-68
2021/11/20 12:35:46;;;;;;;4.20;1.90;;;12.40;99.90;;;;;;4465758;32;20178;-68
2021/11/20 12:38:32;;;;;;;7.33;2.50;;;12.40;99.90;;;;;;4467476;32;20229;-68
2021/11/20 12:40:59;;;;;;;5.27;1.80;;;12.50;99.90;;;;;;4465431;32;20515;-67
2021/11/20 12:44:07;;;;;;;8.87;2.57;;;12.50;99.90;;;;;;4465793;32;20235;-67
2021/11/20 12:46:59;;;;;;;8.50;2.13;;;12.60;99.90;;;;;;4465474;32;20207;-67
2021/11/20 12:49:42;;;;;;;7.10;1.73;;;12.70;99.90;;;;;;4465861;32;20216;-67
2021/11/20 12:52:18;;;;;;;7.37;2.20;;;12.70;99.90;;;;;;4466402;32;20238;-68
2021/11/20 12:55:23;;;;;;;5.43;1.80;;;13.10;99.90;;;;;;4467524;32;20466;-67
2021/11/20 12:57:54;;;;;;;6.40;1.87;;;13.50;99.90;;;;;;4391377;32;20174;-67
2021/11/20 13:00:30;;;;;;;72.43;12.03;;;13.30;99.90;;;;;;4390203;32;20183;-77
2021/11/20 13:03:02;;;;;;;4.70;1.80;;;13.20;99.90;;;;;;4390376;32;20194;-74
2021/11/20 13:05:42;;;;;;;10.10;2.07;;;13.30;99.90;;;;;;4403954;32;20423;-68
2021/11/20 13:08:26;;;;;;;5.63;1.73;;;13.70;99.90;;;;;;4390205;32;20276;-67
2021/11/20 13:11:01;;;;;;;6.33;1.80;;;13.50;99.90;;;;;;4403589;32;20155;-68
2021/11/20 13:13:54;;;;;;;6.97;1.83;;;13.40;99.90;;;;;;4404166;32;20147;-68
2021/11/20 13:16:36;;;;;;;5.87;1.93;;;13.20;99.90;;;;;;4403926;32;20179;-68
2021/11/20 13:19:24;;;;;;;7.13;2.17;;;12.90;99.90;;;;;;4389556;32;20170;-67
2021/11/20 13:21:54;;;;;;;7.30;2.10;;;12.80;99.90;;;;;;4398152;32;20511;-68
2021/11/20 13:24:30;;;;;;;5.43;2.00;;;12.70;99.90;;;;;;4380421;32;20313;-67
2021/11/20 13:27:00;;;;;;;4.47;2.20;;;12.50;99.90;;;;;;4379558;32;20190;-67
2021/11/20 13:29:31;;;;;;;5.53;2.30;;;12.30;99.90;;;;;;4380517;32;20418;-68
2021/11/20 13:32:02;;;;;;;6.10;2.23;;;12.10;99.90;;;;;;4380303;32;20564;-68